Weather reports worldwide

Advertisment
Fehmarnbelt/Grosstonne, Germany (10043): temperature & dewpoint: 10.09.2019 05:00:00 - 16.09.2019 05:00:00 (CEST)Fehmarnbelt/Grosstonne, Germany (10043): water temperature: 10.09.2019 05:00:00 - 16.09.2019 05:00:00 (CEST)Fehmarnbelt/Grosstonne, Germany (10043): wind speed: 10.09.2019 05:00:00 - 16.09.2019 05:00:00 (CEST)Fehmarnbelt/Grosstonne, Germany (10043): wind direction: 10.09.2019 05:00:00 - 16.09.2019 05:00:00 (CEST)Fehmarnbelt/Grosstonne, Germany (10043): reduced air pressure: 10.09.2019 05:00:00 - 16.09.2019 05:00:00 (CEST)
Date & Time tt [°C] td [°C] tw [°C] ff [km/h] ff [kn] dd ppp [hPa]
16.09.2019 05:00:00 14,0 8,4 15,3 50 27 WNW 1016,9
16.09.2019 04:00:00 14,0 8,0 15,3 50 27 WNW 1017,0
16.09.2019 03:00:00 14,0 8,5 15,5 50 27 WNW 1017,1
16.09.2019 02:00:00 14,5 8,5 15,7 54 29 W 1016,9
16.09.2019 01:00:00 14,2 8,5 15,9 54 29 W 1017,1
16.09.2019 00:00:00 14,5 9,2 16,1 54 29 W 1016,7
15.09.2019 23:00:00 14,7 9,5 16,2 55 30 W 1016,6
15.09.2019 22:00:00 14,7 8,7 16,3 55 30 WNW 1016,7
15.09.2019 21:00:00 15,2 10,4 16,4 53 28 N 1016,4
15.09.2019 20:00:00 15,2 9,2 16,4 54 29 W 1016,4
15.09.2019 19:00:00 15,7 10,2 16,5 57 31 W 1015,7
15.09.2019 18:00:00 16,0 10,7 16,4 55 30 W 1015,9
15.09.2019 17:00:00 16,4 11,0 16,4 57 31 WNW 1015,8
15.09.2019 16:00:00 17,5 13,2 16,4 43 23 W 1015,2
15.09.2019 15:00:00 17,2 14,7 16,3 46 25 W 1015,2
15.09.2019 14:00:00 16,7 14,0 16,0 52 28 W 1015,2
15.09.2019 13:00:00 16,2 15,0 15,9 48 26 WSW 1015,2
15.09.2019 12:00:00 16,0 14,4 15,8 56 30 W 1015,4
15.09.2019 11:00:00 16,4 13,2 15,8 56 31 W 1015,2
15.09.2019 10:00:00 15,7 12,0 15,7 52 28 WSW 1015,4
15.09.2019 09:00:00 15,2 11,0 15,7 55 30 WSW 1016,1
15.09.2019 08:00:00 15,5 10,0 15,7 58 32 WSW 1016,2
15.09.2019 07:00:00 15,2 9,7 15,7 56 31 WSW 1017,2
15.09.2019 06:00:00 15,2 9,9 15,7 55 30 SW 1018,0
15.09.2019 05:00:00 15,2 10,5 15,7 55 30 SW 1019,0
15.09.2019 04:00:00 15,0 10,5 15,7 48 26 SW 1020,5
15.09.2019 03:00:00 15,2 10,7 15,7 46 25 SW 1022,1
15.09.2019 02:00:00 15,5 10,9 15,6 46 25 SW 1022,9
15.09.2019 01:00:00 15,2 11,2 15,6 42 23 SW 1024,2
15.09.2019 00:00:00 15,0 11,2 15,6 33 18 SW 1025,1
14.09.2019 23:00:00 15,5 10,2 15,6 37 20 SW 1026,1
14.09.2019 22:00:00 15,9 9,4 15,4 35 19 WSW 1027,1
14.09.2019 21:00:00 16,0 10,0 15,6 35 19 WSW 1027,8
14.09.2019 20:00:00 16,2 10,5 15,4 29 16 W 1028,7
14.09.2019 19:00:00 16,2 9,7 15,5 22 12 W 1028,9
14.09.2019 18:00:00 16,5 9,5 15,4 22 12 W 1029,8
14.09.2019 17:00:00 17,5 10,2 15,8 18 10 W 1030,5
14.09.2019 16:00:00 16,5 8,5 15,8 23 13 W 1031,3
14.09.2019 15:00:00 16,5 8,0 16,0 24 13 W 1032,3
14.09.2019 14:00:00 16,4 9,4 16,0 25 14 W 1032,8
14.09.2019 13:00:00 16,0 9,9 15,8 26 14 W 1033,4
14.09.2019 12:00:00 15,7 9,2 15,7 23 12 W 1033,5
14.09.2019 11:00:00 15,7 9,9 15,7 27 15 W 1033,7
14.09.2019 10:00:00 15,4 9,5 15,5 24 13 W 1033,8
14.09.2019 09:00:00 15,2 9,5 15,4 21 11 W 1033,9
14.09.2019 08:00:00 14,5 9,5 15,3 24 13 W 1033,3
14.09.2019 07:00:00 14,2 8,4 15,5 28 15 WNW 1033,3
14.09.2019 06:00:00 14,2 9,2 15,6 31 17 WNW 1033,1
14.09.2019 05:00:00 14,2 9,2 15,8 33 18 WNW 1033,2
14.09.2019 04:00:00 14,2 9,2 15,9 33 18 WNW 1033,3
14.09.2019 03:00:00 14,2 9,2 16,0 32 17 WNW 1033,2
14.09.2019 02:00:00 14,4 8,9 16,0 33 18 WNW 1033,2
14.09.2019 01:00:00 14,5 8,7 16,1 36 19 NW 1033,2
14.09.2019 00:00:00 14,7 10,0 16,1 37 20 NW 1033,0
13.09.2019 23:00:00 15,0 9,7 16,1 35 19 WNW 1032,7
13.09.2019 22:00:00 15,2 10,2 16,1 35 19 WNW 1032,2
13.09.2019 21:00:00 15,5 10,0 16,2 41 22 WNW 1031,6
13.09.2019 20:00:00 15,7 9,5 16,2 41 22 WNW 1031,2
13.09.2019 19:00:00 16,2 9,7 16,3 37 20 WNW 1030,6
13.09.2019 18:00:00 16,7 9,5 16,3 38 20 WNW 1030,5
13.09.2019 17:00:00 17,2 9,2 16,3 39 21 WNW 1030,3
13.09.2019 16:00:00 17,4 9,7 16,3 39 21 WNW 1030,0
13.09.2019 15:00:00 17,2 9,5 16,3 35 19 WNW 1029,6
13.09.2019 14:00:00 17,0 9,0 16,2 37 20 WNW 1029,1
13.09.2019 13:00:00 16,2 9,0 16,1 46 25 WNW 1028,3
13.09.2019 12:00:00 16,2 10,2 16,0 44 24 WNW 1028,0
13.09.2019 11:00:00 16,0 10,4 16,0 43 23 NW 1027,1
13.09.2019 10:00:00 15,7 11,9 16,5 38 21 NW 1025,8
13.09.2019 09:00:00 15,5 12,0 16,4 40 21 NW 1024,7
13.09.2019 08:00:00 15,5 13,4 16,6 46 25 NNW 1023,1
13.09.2019 07:00:00 16,0 15,9 16,6 46 25 W 1021,7
13.09.2019 06:00:00 17,0 15,9 16,6 46 25 WSW 1020,9
13.09.2019 05:00:00 17,0 15,4 16,5 51 28 WSW 1020,7
13.09.2019 04:00:00 16,9 15,5 16,5 41 22 SW 1021,1
13.09.2019 03:00:00 17,0 14,4 16,5 40 21 SW 1021,8
13.09.2019 02:00:00 17,0 14,2 16,6 38 20 SW 1022,6
13.09.2019 01:00:00 17,0 14,0 16,7 39 21 SW 1023,1
13.09.2019 00:00:00 17,0 13,5 16,7 41 22 SW 1023,3
12.09.2019 23:00:00 16,9 13,2 16,7 36 19 SW 1024,1
12.09.2019 22:00:00 17,0 13,4 16,7 32 17 SW 1024,4
12.09.2019 21:00:00 17,2 13,5 16,7 31 17 WSW 1024,6
12.09.2019 20:00:00 17,5 13,2 16,8 33 18 W 1024,5
12.09.2019 19:00:00 17,5 14,0 16,9 27 15 W 1024,3
12.09.2019 18:00:00 18,4 14,7 16,9 25 14 WSW 1024,4
12.09.2019 17:00:00 18,9 14,5 17,0 25 13 WSW 1024,4
12.09.2019 16:00:00 18,7 14,2 16,9 29 16 WSW 1024,4
12.09.2019 15:00:00 18,5 13,9 16,9 35 19 WSW 1024,4
12.09.2019 14:00:00 18,4 14,5 16,9 34 18 WSW 1024,4
12.09.2019 13:00:00 17,7 14,5 16,8 34 19 WSW 1024,4
12.09.2019 12:00:00 18,0 14,2 16,7 38 21 SW 1024,1
12.09.2019 11:00:00 16,9 14,2 16,7 39 21 WSW 1024,0
12.09.2019 10:00:00 16,7 14,0 16,6 39 21 SW 1023,1
12.09.2019 09:00:00 17,0 13,7 16,5 36 19 WSW 1022,5
12.09.2019 08:00:00 16,4 13,9 16,5 34 19 WSW 1022,2
12.09.2019 07:00:00 15,7 13,7 16,5 32 18 WSW 1021,5
12.09.2019 06:00:00 15,9 13,7 16,5 35 19 W 1020,8
12.09.2019 05:00:00 16,0 13,7 16,5 40 22 WSW 1020,4
12.09.2019 04:00:00 16,0 14,2 16,5 35 19 WSW 1020,0
12.09.2019 03:00:00 16,0 14,5 16,6 34 19 W 1019,6
12.09.2019 02:00:00 16,2 14,2 16,6 39 21 W 1018,9
12.09.2019 01:00:00 16,2 14,5 16,6 42 23 WSW 1018,1
12.09.2019 00:00:00 15,5 14,4 16,6 52 28 WSW 1017,6
11.09.2019 23:00:00 14,7 14,2 16,6 59 32 SW 1017,0
11.09.2019 22:00:00 15,2 13,5 16,6 60 33 SW 1016,8
11.09.2019 21:00:00 15,2 13,7 16,7 53 28 SW 1016,7
11.09.2019 20:00:00 15,2 14,0 16,7 57 31 SW 1016,7
11.09.2019 19:00:00 16,7 12,7 16,7 55 30 SW 1016,6
11.09.2019 18:00:00 17,7 12,7 16,7 40 22 SW 1016,9
11.09.2019 17:00:00 18,0 13,0 16,7 38 20 SW 1016,9
11.09.2019 16:00:00 19,0 11,0 16,8 43 23 SW 1017,0
11.09.2019 15:00:00 19,0 11,9 17,0 35 19 SSW 1017,4
11.09.2019 14:00:00 19,2 10,7 17,0 39 21 SW 1017,6
11.09.2019 13:00:00 18,5 11,7 16,9 39 21 SW 1018,1
11.09.2019 12:00:00 18,2 11,0 16,6 41 22 SW 1018,1
11.09.2019 11:00:00 17,2 12,2 16,5 42 23 SW 1018,3
11.09.2019 10:00:00 16,2 11,7 16,5 41 22 SW 1018,4
11.09.2019 09:00:00 15,7 12,0 16,4 34 18 SSW 1018,4
11.09.2019 08:00:00 15,0 11,9 16,4 40 21 SW 1018,2
11.09.2019 07:00:00 15,0 12,7 16,6 38 20 WSW 1018,0
11.09.2019 06:00:00 14,9 13,5 16,7 38 20 WSW 1017,8
11.09.2019 05:00:00 15,0 13,2 16,8 37 20 WSW 1017,5
11.09.2019 04:00:00 15,2 12,2 16,9 37 20 WSW 1017,5
11.09.2019 03:00:00 16,0 12,5 16,9 37 20 W 1017,4
11.09.2019 02:00:00 15,7 13,0 16,9 39 21 W 1016,9
11.09.2019 01:00:00 15,2 13,5 16,9 42 23 W 1016,7
11.09.2019 00:00:00 16,2 13,5 16,9 43 23 W 1016,1
10.09.2019 23:00:00 16,4 13,3 17,0 48 26 W 1015,6
10.09.2019 22:00:00 16,4 13,7 17,0 48 26 W 1015,0
10.09.2019 21:00:00 16,4 13,5 17,0 51 28 W 1014,4
10.09.2019 20:00:00 16,5 14,2 17,1 46 25 W 1013,9
10.09.2019 19:00:00 16,2 14,0 17,1 50 27 W 1013,3
10.09.2019 18:00:00 16,2 14,4 17,1 50 27 W 1012,7
10.09.2019 17:00:00 16,0 14,5 17,1 53 29 W 1011,9
10.09.2019 16:00:00 16,2 14,0 17,1 49 26 W 1011,5
10.09.2019 15:00:00 16,7 14,0 17,0 46 25 W 1011,1
10.09.2019 14:00:00 16,5 14,2 17,1 51 28 W 1010,7
10.09.2019 13:00:00 16,5 14,0 17,1 54 29 W 1010,3
10.09.2019 12:00:00 16,2 13,5 17,1 55 30 W 1010,0
10.09.2019 11:00:00 15,5 12,7 17,1 52 28 W 1009,9
10.09.2019 10:00:00 15,2 13,2 17,1 53 29 WNW 1009,8
10.09.2019 09:00:00 15,4 13,7 17,1 53 29 W 1009,4
10.09.2019 08:00:00 15,2 13,5 17,1 55 30 WNW 1009,1
10.09.2019 07:00:00 14,9 13,0 17,1 52 28 WNW 1009,0
10.09.2019 06:00:00 14,7 12,7 17,1 50 27 WNW 1008,8
10.09.2019 05:00:00 14,0 13,7 17,1 50 27 WNW 1008,6

tt = temperature
td = dewpoint
tw = water temperature
ff = wind speed
dd = wind direction
ppp = reduced air pressure

Next stations